sensor_id;sensor_type;location;lat;lon;timestamp;P1;durP1;ratioP1;P2;durP2;ratioP2
43150;SDS011;28755;51.478;5.702;2023-06-26T00:00:45;13.75;;;12.32;;
43150;SDS011;28755;51.478;5.702;2023-06-26T00:03:12;19.48;;;11.95;;
43150;SDS011;28755;51.478;5.702;2023-06-26T00:05:39;17.00;;;12.18;;
43150;SDS011;28755;51.478;5.702;2023-06-26T00:08:06;14.70;;;11.20;;
43150;SDS011;28755;51.478;5.702;2023-06-26T00:10:32;16.67;;;12.05;;
43150;SDS011;28755;51.478;5.702;2023-06-26T00:12:57;14.43;;;11.38;;
43150;SDS011;28755;51.478;5.702;2023-06-26T00:15:23;14.75;;;11.27;;
43150;SDS011;28755;51.478;5.702;2023-06-26T00:17:49;13.75;;;10.98;;
43150;SDS011;28755;51.478;5.702;2023-06-26T00:20:15;14.35;;;10.60;;
43150;SDS011;28755;51.478;5.702;2023-06-26T00:22:41;12.63;;;10.63;;
43150;SDS011;28755;51.478;5.702;2023-06-26T00:25:07;13.60;;;9.68;;
43150;SDS011;28755;51.478;5.702;2023-06-26T00:27:33;13.88;;;8.40;;
43150;SDS011;28755;51.478;5.702;2023-06-26T00:29:58;10.73;;;8.63;;
43150;SDS011;28755;51.478;5.702;2023-06-26T00:32:24;12.65;;;8.05;;
43150;SDS011;28755;51.478;5.702;2023-06-26T00:34:49;9.55;;;8.40;;
43150;SDS011;28755;51.478;5.702;2023-06-26T00:37:15;10.98;;;8.23;;
43150;SDS011;28755;51.478;5.702;2023-06-26T00:39:41;11.60;;;8.82;;
43150;SDS011;28755;51.478;5.702;2023-06-26T00:42:06;9.07;;;8.13;;
43150;SDS011;28755;51.478;5.702;2023-06-26T00:44:32;11.85;;;8.27;;
43150;SDS011;28755;51.478;5.702;2023-06-26T00:46:58;11.25;;;8.23;;
43150;SDS011;28755;51.478;5.702;2023-06-26T00:49:24;10.95;;;8.27;;
43150;SDS011;28755;51.478;5.702;2023-06-26T00:51:50;10.27;;;8.35;;
43150;SDS011;28755;51.478;5.702;2023-06-26T00:54:16;8.98;;;8.07;;
43150;SDS011;28755;51.478;5.702;2023-06-26T00:56:45;9.38;;;8.30;;
43150;SDS011;28755;51.478;5.702;2023-06-26T00:59:12;9.88;;;8.50;;
43150;SDS011;28755;51.478;5.702;2023-06-26T01:01:38;10.02;;;7.80;;
43150;SDS011;28755;51.478;5.702;2023-06-26T01:04:03;12.85;;;8.43;;
43150;SDS011;28755;51.478;5.702;2023-06-26T01:06:30;11.05;;;8.35;;
43150;SDS011;28755;51.478;5.702;2023-06-26T01:09:00;12.68;;;8.45;;
43150;SDS011;28755;51.478;5.702;2023-06-26T01:11:26;10.38;;;8.30;;
43150;SDS011;28755;51.478;5.702;2023-06-26T01:13:53;10.82;;;8.15;;
43150;SDS011;28755;51.478;5.702;2023-06-26T01:16:20;10.32;;;8.05;;
43150;SDS011;28755;51.478;5.702;2023-06-26T01:18:48;10.45;;;8.23;;
43150;SDS011;28755;51.478;5.702;2023-06-26T01:21:14;9.82;;;8.48;;
43150;SDS011;28755;51.478;5.702;2023-06-26T01:26:30;10.02;;;8.55;;
43150;SDS011;28755;51.478;5.702;2023-06-26T01:29:00;10.52;;;7.82;;
43150;SDS011;28755;51.478;5.702;2023-06-26T01:31:27;9.15;;;6.80;;
43150;SDS011;28755;51.478;5.702;2023-06-26T01:33:55;8.80;;;6.97;;
43150;SDS011;28755;51.478;5.702;2023-06-26T01:38:51;8.15;;;5.65;;
43150;SDS011;28755;51.478;5.702;2023-06-26T01:41:17;7.88;;;5.82;;
43150;SDS011;28755;51.478;5.702;2023-06-26T01:52:18;9.40;;;5.65;;
43150;SDS011;28755;51.478;5.702;2023-06-26T01:54:50;9.30;;;5.57;;
43150;SDS011;28755;51.478;5.702;2023-06-26T01:57:23;9.48;;;5.72;;
43150;SDS011;28755;51.478;5.702;2023-06-26T01:59:53;9.75;;;5.55;;
43150;SDS011;28755;51.478;5.702;2023-06-26T02:02:20;8.23;;;6.03;;
43150;SDS011;28755;51.478;5.702;2023-06-26T02:04:47;11.10;;;6.05;;
43150;SDS011;28755;51.478;5.702;2023-06-26T02:07:13;9.20;;;5.50;;
43150;SDS011;28755;51.478;5.702;2023-06-26T02:09:39;10.45;;;6.10;;
43150;SDS011;28755;51.478;5.702;2023-06-26T02:12:04;8.57;;;6.03;;
43150;SDS011;28755;51.478;5.702;2023-06-26T02:14:30;6.68;;;5.82;;
43150;SDS011;28755;51.478;5.702;2023-06-26T02:16:56;10.35;;;5.78;;
43150;SDS011;28755;51.478;5.702;2023-06-26T02:19:21;7.95;;;5.82;;
43150;SDS011;28755;51.478;5.702;2023-06-26T02:21:50;12.70;;;6.15;;
43150;SDS011;28755;51.478;5.702;2023-06-26T02:24:16;8.68;;;5.55;;
43150;SDS011;28755;51.478;5.702;2023-06-26T02:26:41;9.95;;;5.90;;
43150;SDS011;28755;51.478;5.702;2023-06-26T02:29:07;10.25;;;5.78;;
43150;SDS011;28755;51.478;5.702;2023-06-26T02:31:32;11.43;;;6.00;;
43150;SDS011;28755;51.478;5.702;2023-06-26T02:33:58;9.43;;;5.40;;
43150;SDS011;28755;51.478;5.702;2023-06-26T02:36:23;8.70;;;5.80;;
43150;SDS011;28755;51.478;5.702;2023-06-26T02:38:49;9.32;;;5.57;;
43150;SDS011;28755;51.478;5.702;2023-06-26T02:41:14;10.93;;;5.72;;
43150;SDS011;28755;51.478;5.702;2023-06-26T02:43:40;10.23;;;5.65;;
43150;SDS011;28755;51.478;5.702;2023-06-26T02:46:06;10.57;;;5.93;;
43150;SDS011;28755;51.478;5.702;2023-06-26T02:48:31;7.20;;;5.07;;
43150;SDS011;28755;51.478;5.702;2023-06-26T02:50:57;10.25;;;5.25;;
43150;SDS011;28755;51.478;5.702;2023-06-26T02:53:23;8.85;;;5.30;;
43150;SDS011;28755;51.478;5.702;2023-06-26T02:55:49;7.57;;;4.90;;
43150;SDS011;28755;51.478;5.702;2023-06-26T02:58:15;8.00;;;4.35;;
43150;SDS011;28755;51.478;5.702;2023-06-26T03:00:40;9.60;;;4.80;;
43150;SDS011;28755;51.478;5.702;2023-06-26T03:03:06;10.73;;;5.45;;
43150;SDS011;28755;51.478;5.702;2023-06-26T03:05:32;8.43;;;4.65;;
43150;SDS011;28755;51.478;5.702;2023-06-26T03:07:58;8.82;;;4.80;;
43150;SDS011;28755;51.478;5.702;2023-06-26T03:10:23;13.02;;;5.10;;
43150;SDS011;28755;51.478;5.702;2023-06-26T03:12:49;10.60;;;4.82;;
43150;SDS011;28755;51.478;5.702;2023-06-26T03:15:15;12.18;;;4.20;;
43150;SDS011;28755;51.478;5.702;2023-06-26T03:17:40;7.63;;;4.68;;
43150;SDS011;28755;51.478;5.702;2023-06-26T03:20:06;11.77;;;4.70;;
43150;SDS011;28755;51.478;5.702;2023-06-26T03:22:33;10.32;;;4.53;;
43150;SDS011;28755;51.478;5.702;2023-06-26T03:24:58;11.50;;;4.75;;
43150;SDS011;28755;51.478;5.702;2023-06-26T03:27:24;8.65;;;4.35;;
43150;SDS011;28755;51.478;5.702;2023-06-26T03:29:51;10.70;;;4.65;;
43150;SDS011;28755;51.478;5.702;2023-06-26T03:32:17;12.90;;;5.22;;
43150;SDS011;28755;51.478;5.702;2023-06-26T03:34:42;9.10;;;4.45;;
43150;SDS011;28755;51.478;5.702;2023-06-26T03:37:08;11.18;;;4.93;;
43150;SDS011;28755;51.478;5.702;2023-06-26T03:39:34;11.07;;;4.95;;
43150;SDS011;28755;51.478;5.702;2023-06-26T03:41:59;19.52;;;5.07;;
43150;SDS011;28755;51.478;5.702;2023-06-26T03:44:26;17.20;;;5.15;;
43150;SDS011;28755;51.478;5.702;2023-06-26T03:46:52;12.95;;;4.68;;
43150;SDS011;28755;51.478;5.702;2023-06-26T03:49:18;12.88;;;4.53;;
43150;SDS011;28755;51.478;5.702;2023-06-26T03:51:44;7.78;;;4.32;;
43150;SDS011;28755;51.478;5.702;2023-06-26T03:54:10;14.65;;;4.95;;
43150;SDS011;28755;51.478;5.702;2023-06-26T03:56:35;11.48;;;4.70;;
43150;SDS011;28755;51.478;5.702;2023-06-26T03:59:01;12.32;;;5.07;;
43150;SDS011;28755;51.478;5.702;2023-06-26T04:01:27;15.00;;;4.95;;
43150;SDS011;28755;51.478;5.702;2023-06-26T04:03:52;11.25;;;4.88;;
43150;SDS011;28755;51.478;5.702;2023-06-26T04:06:18;11.25;;;4.72;;
43150;SDS011;28755;51.478;5.702;2023-06-26T04:08:44;10.95;;;5.15;;
43150;SDS011;28755;51.478;5.702;2023-06-26T04:11:10;11.98;;;4.70;;
43150;SDS011;28755;51.478;5.702;2023-06-26T04:13:35;13.75;;;5.13;;
43150;SDS011;28755;51.478;5.702;2023-06-26T04:16:01;17.05;;;5.00;;
43150;SDS011;28755;51.478;5.702;2023-06-26T04:18:27;15.68;;;5.32;;
43150;SDS011;28755;51.478;5.702;2023-06-26T04:21:05;10.68;;;5.35;;
43150;SDS011;28755;51.478;5.702;2023-06-26T04:23:32;9.20;;;4.88;;
43150;SDS011;28755;51.478;5.702;2023-06-26T04:25:58;13.00;;;5.03;;
43150;SDS011;28755;51.478;5.702;2023-06-26T04:28:24;15.73;;;4.85;;
43150;SDS011;28755;51.478;5.702;2023-06-26T04:30:49;14.48;;;5.10;;
43150;SDS011;28755;51.478;5.702;2023-06-26T04:33:15;13.68;;;5.57;;
43150;SDS011;28755;51.478;5.702;2023-06-26T04:35:41;12.27;;;5.63;;
43150;SDS011;28755;51.478;5.702;2023-06-26T04:38:09;18.17;;;5.93;;
43150;SDS011;28755;51.478;5.702;2023-06-26T04:40:35;15.82;;;5.28;;
43150;SDS011;28755;51.478;5.702;2023-06-26T04:43:01;17.02;;;6.32;;
43150;SDS011;28755;51.478;5.702;2023-06-26T04:45:26;15.23;;;5.78;;
43150;SDS011;28755;51.478;5.702;2023-06-26T04:47:52;14.00;;;5.47;;
43150;SDS011;28755;51.478;5.702;2023-06-26T04:50:17;17.55;;;6.20;;
43150;SDS011;28755;51.478;5.702;2023-06-26T04:52:43;11.93;;;4.93;;
43150;SDS011;28755;51.478;5.702;2023-06-26T04:55:09;15.75;;;5.97;;
43150;SDS011;28755;51.478;5.702;2023-06-26T04:57:35;13.48;;;6.13;;
43150;SDS011;28755;51.478;5.702;2023-06-26T05:00:00;19.15;;;6.18;;
43150;SDS011;28755;51.478;5.702;2023-06-26T05:02:27;18.75;;;6.05;;
43150;SDS011;28755;51.478;5.702;2023-06-26T05:04:53;15.02;;;6.05;;
43150;SDS011;28755;51.478;5.702;2023-06-26T05:07:18;22.73;;;6.10;;
43150;SDS011;28755;51.478;5.702;2023-06-26T05:09:44;15.20;;;5.28;;
43150;SDS011;28755;51.478;5.702;2023-06-26T05:12:28;26.40;;;5.95;;
43150;SDS011;28755;51.478;5.702;2023-06-26T05:14:54;14.73;;;5.43;;
43150;SDS011;28755;51.478;5.702;2023-06-26T05:17:20;16.63;;;6.30;;
43150;SDS011;28755;51.478;5.702;2023-06-26T05:19:45;17.20;;;5.80;;
43150;SDS011;28755;51.478;5.702;2023-06-26T05:22:12;20.52;;;5.60;;
43150;SDS011;28755;51.478;5.702;2023-06-26T05:24:38;15.32;;;5.00;;
43150;SDS011;28755;51.478;5.702;2023-06-26T05:27:05;16.20;;;5.43;;
43150;SDS011;28755;51.478;5.702;2023-06-26T05:29:31;18.35;;;5.30;;
43150;SDS011;28755;51.478;5.702;2023-06-26T05:31:58;17.45;;;5.28;;
43150;SDS011;28755;51.478;5.702;2023-06-26T05:34:24;14.82;;;5.20;;
43150;SDS011;28755;51.478;5.702;2023-06-26T05:36:51;20.90;;;5.55;;
43150;SDS011;28755;51.478;5.702;2023-06-26T05:39:17;20.80;;;5.20;;
43150;SDS011;28755;51.478;5.702;2023-06-26T05:41:44;18.38;;;4.72;;
43150;SDS011;28755;51.478;5.702;2023-06-26T05:44:10;14.95;;;4.68;;
43150;SDS011;28755;51.478;5.702;2023-06-26T05:46:35;17.33;;;4.63;;
43150;SDS011;28755;51.478;5.702;2023-06-26T05:49:01;20.70;;;5.25;;
43150;SDS011;28755;51.478;5.702;2023-06-26T05:51:27;17.02;;;4.82;;
43150;SDS011;28755;51.478;5.702;2023-06-26T05:53:53;14.40;;;4.90;;
43150;SDS011;28755;51.478;5.702;2023-06-26T05:56:19;19.90;;;4.78;;
43150;SDS011;28755;51.478;5.702;2023-06-26T05:58:45;19.13;;;5.38;;
43150;SDS011;28755;51.478;5.702;2023-06-26T06:01:11;15.88;;;5.28;;
43150;SDS011;28755;51.478;5.702;2023-06-26T06:03:36;14.20;;;4.45;;
43150;SDS011;28755;51.478;5.702;2023-06-26T06:06:03;17.55;;;5.53;;
43150;SDS011;28755;51.478;5.702;2023-06-26T06:08:29;17.77;;;4.97;;
43150;SDS011;28755;51.478;5.702;2023-06-26T06:10:54;18.25;;;4.95;;
43150;SDS011;28755;51.478;5.702;2023-06-26T06:13:20;15.20;;;4.45;;
43150;SDS011;28755;51.478;5.702;2023-06-26T06:15:47;15.85;;;4.50;;
43150;SDS011;28755;51.478;5.702;2023-06-26T06:18:12;15.15;;;4.40;;
43150;SDS011;28755;51.478;5.702;2023-06-26T06:20:38;18.42;;;4.53;;
43150;SDS011;28755;51.478;5.702;2023-06-26T06:23:03;17.88;;;5.05;;
43150;SDS011;28755;51.478;5.702;2023-06-26T06:25:29;17.45;;;4.97;;
43150;SDS011;28755;51.478;5.702;2023-06-26T06:27:54;16.23;;;4.43;;
43150;SDS011;28755;51.478;5.702;2023-06-26T06:30:20;16.30;;;4.10;;
43150;SDS011;28755;51.478;5.702;2023-06-26T06:32:45;19.33;;;4.97;;
43150;SDS011;28755;51.478;5.702;2023-06-26T06:35:15;24.90;;;5.10;;
43150;SDS011;28755;51.478;5.702;2023-06-26T06:37:42;13.18;;;4.38;;
43150;SDS011;28755;51.478;5.702;2023-06-26T06:40:08;15.15;;;4.43;;
43150;SDS011;28755;51.478;5.702;2023-06-26T06:42:35;15.25;;;4.10;;
43150;SDS011;28755;51.478;5.702;2023-06-26T06:45:01;16.00;;;4.40;;
43150;SDS011;28755;51.478;5.702;2023-06-26T06:47:28;16.67;;;4.18;;
43150;SDS011;28755;51.478;5.702;2023-06-26T06:49:53;14.13;;;4.35;;
43150;SDS011;28755;51.478;5.702;2023-06-26T06:52:19;12.55;;;3.92;;
43150;SDS011;28755;51.478;5.702;2023-06-26T06:54:51;15.88;;;4.20;;
43150;SDS011;28755;51.478;5.702;2023-06-26T06:57:17;18.30;;;4.13;;
43150;SDS011;28755;51.478;5.702;2023-06-26T06:59:43;17.55;;;4.50;;
43150;SDS011;28755;51.478;5.702;2023-06-26T07:02:09;11.93;;;3.65;;
43150;SDS011;28755;51.478;5.702;2023-06-26T07:04:34;21.00;;;4.10;;
43150;SDS011;28755;51.478;5.702;2023-06-26T07:07:00;13.00;;;3.63;;
43150;SDS011;28755;51.478;5.702;2023-06-26T07:09:25;13.45;;;4.10;;
43150;SDS011;28755;51.478;5.702;2023-06-26T07:11:51;14.00;;;3.55;;
43150;SDS011;28755;51.478;5.702;2023-06-26T07:14:16;9.75;;;3.10;;
43150;SDS011;28755;51.478;5.702;2023-06-26T07:16:42;10.73;;;3.28;;
43150;SDS011;28755;51.478;5.702;2023-06-26T07:19:08;14.27;;;4.30;;
43150;SDS011;28755;51.478;5.702;2023-06-26T07:21:33;11.27;;;3.00;;
43150;SDS011;28755;51.478;5.702;2023-06-26T07:23:59;11.82;;;3.67;;
43150;SDS011;28755;51.478;5.702;2023-06-26T07:26:24;11.50;;;3.42;;
43150;SDS011;28755;51.478;5.702;2023-06-26T07:28:50;13.63;;;3.75;;
43150;SDS011;28755;51.478;5.702;2023-06-26T07:31:15;7.28;;;2.92;;
43150;SDS011;28755;51.478;5.702;2023-06-26T07:33:41;10.55;;;2.95;;
43150;SDS011;28755;51.478;5.702;2023-06-26T07:36:07;13.25;;;3.53;;
43150;SDS011;28755;51.478;5.702;2023-06-26T07:38:32;13.02;;;3.85;;
43150;SDS011;28755;51.478;5.702;2023-06-26T07:40:58;13.82;;;3.38;;
43150;SDS011;28755;51.478;5.702;2023-06-26T07:43:24;11.57;;;3.47;;
43150;SDS011;28755;51.478;5.702;2023-06-26T07:45:49;13.60;;;4.00;;
43150;SDS011;28755;51.478;5.702;2023-06-26T07:48:16;11.07;;;3.45;;
43150;SDS011;28755;51.478;5.702;2023-06-26T07:50:42;17.80;;;3.63;;
43150;SDS011;28755;51.478;5.702;2023-06-26T07:53:07;12.93;;;3.80;;
43150;SDS011;28755;51.478;5.702;2023-06-26T07:55:33;7.95;;;3.10;;
43150;SDS011;28755;51.478;5.702;2023-06-26T07:57:59;14.60;;;3.40;;
43150;SDS011;28755;51.478;5.702;2023-06-26T08:00:24;17.02;;;3.22;;
43150;SDS011;28755;51.478;5.702;2023-06-26T08:02:51;13.20;;;3.65;;
43150;SDS011;28755;51.478;5.702;2023-06-26T08:05:16;9.00;;;2.78;;
43150;SDS011;28755;51.478;5.702;2023-06-26T08:07:42;9.95;;;3.10;;
43150;SDS011;28755;51.478;5.702;2023-06-26T08:10:08;9.60;;;3.25;;
43150;SDS011;28755;51.478;5.702;2023-06-26T08:12:34;10.73;;;3.20;;
43150;SDS011;28755;51.478;5.702;2023-06-26T08:14:59;10.02;;;3.10;;
43150;SDS011;28755;51.478;5.702;2023-06-26T08:17:27;8.77;;;3.13;;
43150;SDS011;28755;51.478;5.702;2023-06-26T08:19:53;6.20;;;2.90;;
43150;SDS011;28755;51.478;5.702;2023-06-26T08:22:18;11.60;;;3.05;;
43150;SDS011;28755;51.478;5.702;2023-06-26T08:24:44;12.27;;;3.70;;
43150;SDS011;28755;51.478;5.702;2023-06-26T08:27:09;10.95;;;3.83;;
43150;SDS011;28755;51.478;5.702;2023-06-26T08:29:35;11.30;;;3.50;;
43150;SDS011;28755;51.478;5.702;2023-06-26T08:32:01;8.48;;;3.20;;
43150;SDS011;28755;51.478;5.702;2023-06-26T08:34:27;5.32;;;2.70;;
43150;SDS011;28755;51.478;5.702;2023-06-26T08:36:52;6.72;;;2.97;;
43150;SDS011;28755;51.478;5.702;2023-06-26T08:39:18;8.07;;;2.50;;
43150;SDS011;28755;51.478;5.702;2023-06-26T08:41:44;9.27;;;3.03;;
43150;SDS011;28755;51.478;5.702;2023-06-26T08:44:09;9.70;;;2.22;;
43150;SDS011;28755;51.478;5.702;2023-06-26T08:46:35;12.25;;;2.65;;
43150;SDS011;28755;51.478;5.702;2023-06-26T08:49:04;8.65;;;2.45;;
43150;SDS011;28755;51.478;5.702;2023-06-26T08:51:36;12.15;;;2.10;;
43150;SDS011;28755;51.478;5.702;2023-06-26T08:54:05;7.25;;;2.25;;
43150;SDS011;28755;51.478;5.702;2023-06-26T08:56:39;3.92;;;1.58;;
43150;SDS011;28755;51.478;5.702;2023-06-26T08:59:08;4.03;;;1.45;;
43150;SDS011;28755;51.478;5.702;2023-06-26T09:01:35;5.75;;;1.30;;
43150;SDS011;28755;51.478;5.702;2023-06-26T09:04:01;3.88;;;1.65;;
43150;SDS011;28755;51.478;5.702;2023-06-26T09:06:27;6.57;;;1.90;;
43150;SDS011;28755;51.478;5.702;2023-06-26T09:08:53;8.45;;;1.50;;
43150;SDS011;28755;51.478;5.702;2023-06-26T09:11:18;3.20;;;1.23;;
43150;SDS011;28755;51.478;5.702;2023-06-26T09:13:44;7.07;;;1.40;;
43150;SDS011;28755;51.478;5.702;2023-06-26T09:16:12;4.78;;;1.40;;
43150;SDS011;28755;51.478;5.702;2023-06-26T09:18:38;4.78;;;1.38;;
43150;SDS011;28755;51.478;5.702;2023-06-26T09:21:07;5.75;;;1.60;;
43150;SDS011;28755;51.478;5.702;2023-06-26T09:23:33;5.45;;;1.38;;
43150;SDS011;28755;51.478;5.702;2023-06-26T09:26:01;5.72;;;1.50;;
43150;SDS011;28755;51.478;5.702;2023-06-26T09:28:29;8.52;;;1.60;;
43150;SDS011;28755;51.478;5.702;2023-06-26T09:30:59;6.30;;;1.33;;
43150;SDS011;28755;51.478;5.702;2023-06-26T09:33:32;8.23;;;1.40;;
43150;SDS011;28755;51.478;5.702;2023-06-26T09:36:18;7.93;;;1.40;;
43150;SDS011;28755;51.478;5.702;2023-06-26T09:38:46;3.80;;;1.08;;
43150;SDS011;28755;51.478;5.702;2023-06-26T09:41:15;4.07;;;1.20;;
43150;SDS011;28755;51.478;5.702;2023-06-26T09:43:47;3.92;;;1.08;;
43150;SDS011;28755;51.478;5.702;2023-06-26T09:46:32;8.27;;;2.35;;
43150;SDS011;28755;51.478;5.702;2023-06-26T09:49:05;4.97;;;1.10;;
43150;SDS011;28755;51.478;5.702;2023-06-26T09:51:35;5.85;;;1.27;;
43150;SDS011;28755;51.478;5.702;2023-06-26T09:54:02;7.97;;;1.40;;
43150;SDS011;28755;51.478;5.702;2023-06-26T09:56:29;5.55;;;1.60;;
43150;SDS011;28755;51.478;5.702;2023-06-26T09:58:55;6.60;;;1.38;;
43150;SDS011;28755;51.478;5.702;2023-06-26T10:01:25;4.50;;;1.40;;
43150;SDS011;28755;51.478;5.702;2023-06-26T10:03:54;6.35;;;0.90;;
43150;SDS011;28755;51.478;5.702;2023-06-26T10:06:24;5.45;;;0.85;;
43150;SDS011;28755;51.478;5.702;2023-06-26T10:08:56;2.97;;;0.90;;
43150;SDS011;28755;51.478;5.702;2023-06-26T10:11:25;4.43;;;0.98;;
43150;SDS011;28755;51.478;5.702;2023-06-26T10:13:57;4.40;;;1.00;;
43150;SDS011;28755;51.478;5.702;2023-06-26T10:16:25;4.78;;;1.23;;
43150;SDS011;28755;51.478;5.702;2023-06-26T10:18:53;6.30;;;1.33;;
43150;SDS011;28755;51.478;5.702;2023-06-26T10:21:26;6.15;;;1.05;;
43150;SDS011;28755;51.478;5.702;2023-06-26T10:23:54;7.88;;;1.40;;
43150;SDS011;28755;51.478;5.702;2023-06-26T10:26:21;3.30;;;1.00;;
43150;SDS011;28755;51.478;5.702;2023-06-26T10:28:49;5.60;;;1.10;;
43150;SDS011;28755;51.478;5.702;2023-06-26T10:31:18;5.32;;;1.10;;
43150;SDS011;28755;51.478;5.702;2023-06-26T10:33:47;2.15;;;1.00;;
43150;SDS011;28755;51.478;5.702;2023-06-26T10:36:15;6.05;;;1.10;;
43150;SDS011;28755;51.478;5.702;2023-06-26T10:38:54;2.78;;;1.23;;
43150;SDS011;28755;51.478;5.702;2023-06-26T10:41:21;4.22;;;0.90;;
43150;SDS011;28755;51.478;5.702;2023-06-26T10:43:52;3.33;;;0.95;;
43150;SDS011;28755;51.478;5.702;2023-06-26T10:46:33;2.70;;;0.98;;
43150;SDS011;28755;51.478;5.702;2023-06-26T10:49:13;5.20;;;1.58;;
43150;SDS011;28755;51.478;5.702;2023-06-26T10:51:38;3.22;;;0.95;;
43150;SDS011;28755;51.478;5.702;2023-06-26T10:54:15;11.98;;;1.10;;
43150;SDS011;28755;51.478;5.702;2023-06-26T10:56:44;4.82;;;1.00;;
43150;SDS011;28755;51.478;5.702;2023-06-26T10:59:13;3.95;;;0.80;;
43150;SDS011;28755;51.478;5.702;2023-06-26T11:01:40;4.55;;;0.90;;
43150;SDS011;28755;51.478;5.702;2023-06-26T11:04:09;5.20;;;1.10;;
43150;SDS011;28755;51.478;5.702;2023-06-26T11:06:40;7.25;;;1.13;;
43150;SDS011;28755;51.478;5.702;2023-06-26T11:09:14;3.40;;;1.10;;
43150;SDS011;28755;51.478;5.702;2023-06-26T11:14:19;7.65;;;1.20;;
43150;SDS011;28755;51.478;5.702;2023-06-26T11:16:45;5.95;;;1.27;;
43150;SDS011;28755;51.478;5.702;2023-06-26T11:19:12;7.85;;;1.23;;
43150;SDS011;28755;51.478;5.702;2023-06-26T11:21:39;7.38;;;1.08;;
43150;SDS011;28755;51.478;5.702;2023-06-26T11:24:08;2.88;;;1.02;;
43150;SDS011;28755;51.478;5.702;2023-06-26T11:26:41;4.55;;;1.00;;
43150;SDS011;28755;51.478;5.702;2023-06-26T11:29:08;2.60;;;1.00;;
43150;SDS011;28755;51.478;5.702;2023-06-26T11:31:36;3.83;;;0.93;;
43150;SDS011;28755;51.478;5.702;2023-06-26T11:34:04;4.18;;;0.70;;
43150;SDS011;28755;51.478;5.702;2023-06-26T11:36:35;5.55;;;1.20;;
43150;SDS011;28755;51.478;5.702;2023-06-26T11:39:02;3.42;;;1.33;;
43150;SDS011;28755;51.478;5.702;2023-06-26T11:41:31;4.57;;;1.08;;
43150;SDS011;28755;51.478;5.702;2023-06-26T11:44:01;6.85;;;0.90;;
43150;SDS011;28755;51.478;5.702;2023-06-26T11:46:30;4.00;;;0.80;;
43150;SDS011;28755;51.478;5.702;2023-06-26T11:48:56;3.50;;;1.02;;
43150;SDS011;28755;51.478;5.702;2023-06-26T11:51:21;5.68;;;1.00;;
43150;SDS011;28755;51.478;5.702;2023-06-26T11:53:47;3.92;;;1.00;;
43150;SDS011;28755;51.478;5.702;2023-06-26T11:56:14;3.70;;;0.90;;
43150;SDS011;28755;51.478;5.702;2023-06-26T11:58:56;3.80;;;0.93;;
43150;SDS011;28755;51.478;5.702;2023-06-26T12:01:38;1.73;;;0.75;;
43150;SDS011;28755;51.478;5.702;2023-06-26T12:04:09;2.97;;;1.00;;
43150;SDS011;28755;51.478;5.702;2023-06-26T12:06:36;4.10;;;0.70;;
43150;SDS011;28755;51.478;5.702;2023-06-26T12:09:07;5.53;;;1.00;;
43150;SDS011;28755;51.478;5.702;2023-06-26T12:11:36;2.97;;;0.80;;
43150;SDS011;28755;51.478;5.702;2023-06-26T12:14:05;4.65;;;1.17;;
43150;SDS011;28755;51.478;5.702;2023-06-26T12:16:31;6.53;;;1.00;;
43150;SDS011;28755;51.478;5.702;2023-06-26T12:18:59;6.50;;;1.10;;
43150;SDS011;28755;51.478;5.702;2023-06-26T12:24:07;3.70;;;1.08;;
43150;SDS011;28755;51.478;5.702;2023-06-26T12:26:34;5.25;;;1.00;;
43150;SDS011;28755;51.478;5.702;2023-06-26T12:29:05;3.50;;;1.05;;
43150;SDS011;28755;51.478;5.702;2023-06-26T12:31:32;4.43;;;0.93;;
43150;SDS011;28755;51.478;5.702;2023-06-26T12:33:59;2.90;;;0.85;;
43150;SDS011;28755;51.478;5.702;2023-06-26T12:36:25;5.63;;;0.88;;
43150;SDS011;28755;51.478;5.702;2023-06-26T12:38:52;2.83;;;1.00;;
43150;SDS011;28755;51.478;5.702;2023-06-26T12:41:18;2.67;;;0.80;;
43150;SDS011;28755;51.478;5.702;2023-06-26T12:43:45;3.15;;;0.90;;
43150;SDS011;28755;51.478;5.702;2023-06-26T12:46:11;5.90;;;0.85;;
43150;SDS011;28755;51.478;5.702;2023-06-26T12:48:41;3.45;;;1.02;;
43150;SDS011;28755;51.478;5.702;2023-06-26T12:51:17;3.97;;;1.48;;
43150;SDS011;28755;51.478;5.702;2023-06-26T12:53:43;2.78;;;1.00;;
43150;SDS011;28755;51.478;5.702;2023-06-26T12:56:09;3.95;;;1.17;;
43150;SDS011;28755;51.478;5.702;2023-06-26T12:58:36;5.75;;;1.17;;
43150;SDS011;28755;51.478;5.702;2023-06-26T13:01:05;3.65;;;1.10;;
43150;SDS011;28755;51.478;5.702;2023-06-26T13:03:39;4.57;;;1.40;;
43150;SDS011;28755;51.478;5.702;2023-06-26T13:06:08;5.25;;;1.27;;
43150;SDS011;28755;51.478;5.702;2023-06-26T13:08:34;6.25;;;2.05;;
43150;SDS011;28755;51.478;5.702;2023-06-26T13:10:59;6.55;;;1.38;;
43150;SDS011;28755;51.478;5.702;2023-06-26T13:13:25;12.95;;;1.38;;
43150;SDS011;28755;51.478;5.702;2023-06-26T13:15:51;6.53;;;1.23;;
43150;SDS011;28755;51.478;5.702;2023-06-26T13:18:16;3.78;;;1.40;;
43150;SDS011;28755;51.478;5.702;2023-06-26T13:20:42;4.45;;;1.20;;
43150;SDS011;28755;51.478;5.702;2023-06-26T13:23:07;6.10;;;1.25;;
43150;SDS011;28755;51.478;5.702;2023-06-26T13:25:33;1.42;;;0.77;;
43150;SDS011;28755;51.478;5.702;2023-06-26T13:27:59;4.72;;;1.27;;
43150;SDS011;28755;51.478;5.702;2023-06-26T13:30:25;5.30;;;0.90;;
43150;SDS011;28755;51.478;5.702;2023-06-26T13:32:50;5.90;;;1.38;;
43150;SDS011;28755;51.478;5.702;2023-06-26T13:35:16;9.02;;;1.20;;
43150;SDS011;28755;51.478;5.702;2023-06-26T13:37:41;4.38;;;0.90;;
43150;SDS011;28755;51.478;5.702;2023-06-26T13:40:07;5.22;;;1.00;;
43150;SDS011;28755;51.478;5.702;2023-06-26T13:42:34;5.35;;;0.88;;
43150;SDS011;28755;51.478;5.702;2023-06-26T13:45:01;6.57;;;1.15;;
43150;SDS011;28755;51.478;5.702;2023-06-26T13:47:27;4.28;;;1.05;;
43150;SDS011;28755;51.478;5.702;2023-06-26T13:49:53;5.30;;;1.23;;
43150;SDS011;28755;51.478;5.702;2023-06-26T13:52:19;6.82;;;1.25;;
43150;SDS011;28755;51.478;5.702;2023-06-26T13:54:44;5.57;;;1.10;;
43150;SDS011;28755;51.478;5.702;2023-06-26T13:57:10;3.17;;;1.10;;
43150;SDS011;28755;51.478;5.702;2023-06-26T13:59:36;2.22;;;0.90;;
43150;SDS011;28755;51.478;5.702;2023-06-26T14:02:04;5.82;;;1.10;;
43150;SDS011;28755;51.478;5.702;2023-06-26T14:04:30;3.65;;;0.82;;
43150;SDS011;28755;51.478;5.702;2023-06-26T14:06:56;4.30;;;1.10;;
43150;SDS011;28755;51.478;5.702;2023-06-26T14:09:21;2.78;;;0.88;;
43150;SDS011;28755;51.478;5.702;2023-06-26T14:11:47;5.47;;;0.93;;
43150;SDS011;28755;51.478;5.702;2023-06-26T14:14:13;3.75;;;1.00;;
43150;SDS011;28755;51.478;5.702;2023-06-26T14:16:38;3.63;;;1.20;;
43150;SDS011;28755;51.478;5.702;2023-06-26T14:19:05;4.15;;;0.85;;
43150;SDS011;28755;51.478;5.702;2023-06-26T14:21:30;5.43;;;0.98;;
43150;SDS011;28755;51.478;5.702;2023-06-26T14:23:58;9.93;;;0.90;;
43150;SDS011;28755;51.478;5.702;2023-06-26T14:26:23;4.57;;;1.10;;
43150;SDS011;28755;51.478;5.702;2023-06-26T14:28:49;2.88;;;1.00;;
43150;SDS011;28755;51.478;5.702;2023-06-26T14:31:15;3.88;;;1.17;;
43150;SDS011;28755;51.478;5.702;2023-06-26T14:33:40;3.08;;;1.35;;
43150;SDS011;28755;51.478;5.702;2023-06-26T14:36:06;5.82;;;1.27;;
43150;SDS011;28755;51.478;5.702;2023-06-26T14:38:31;3.90;;;1.15;;
43150;SDS011;28755;51.478;5.702;2023-06-26T14:40:57;5.80;;;1.00;;
43150;SDS011;28755;51.478;5.702;2023-06-26T14:43:22;4.22;;;0.80;;
43150;SDS011;28755;51.478;5.702;2023-06-26T14:45:48;3.75;;;0.88;;
43150;SDS011;28755;51.478;5.702;2023-06-26T14:48:14;3.33;;;0.98;;
43150;SDS011;28755;51.478;5.702;2023-06-26T14:50:40;4.75;;;1.25;;
43150;SDS011;28755;51.478;5.702;2023-06-26T14:53:05;3.50;;;0.98;;
43150;SDS011;28755;51.478;5.702;2023-06-26T14:55:31;3.28;;;0.90;;
43150;SDS011;28755;51.478;5.702;2023-06-26T14:57:56;4.40;;;1.90;;